createdAt,value
2022-11-18T00:08:33.968Z,18.70
2022-11-18T00:20:34.423Z,22.00
2022-11-18T00:32:34.870Z,22.10
2022-11-18T00:44:35.327Z,19.30
2022-11-18T00:56:35.802Z,20.80
2022-11-18T01:08:36.236Z,26.50
2022-11-18T01:20:36.662Z,23.40
2022-11-18T01:32:37.105Z,24.80
2022-11-18T01:44:37.568Z,31.80
2022-11-18T01:56:38.045Z,31.20
2022-11-18T02:08:38.441Z,34.80
2022-11-18T02:20:38.910Z,35.80
2022-11-18T02:32:39.422Z,35.70
2022-11-18T02:44:39.819Z,37.30
2022-11-18T02:56:40.302Z,36.40
2022-11-18T03:08:40.751Z,33.40
2022-11-18T03:20:41.238Z,30.30
2022-11-18T03:32:41.643Z,24.30
2022-11-18T03:44:42.116Z,27.50
2022-11-18T03:56:42.557Z,25.40
2022-11-18T04:08:43.024Z,19.20
2022-11-18T04:20:43.448Z,18.80
2022-11-18T04:32:43.881Z,19.90
2022-11-18T04:44:44.389Z,22.80
2022-11-18T04:56:48.814Z,22.30
2022-11-18T05:08:45.278Z,23.20
2022-11-18T05:20:45.680Z,22.10
2022-11-18T05:32:46.150Z,21.90
2022-11-18T05:44:46.614Z,23.90
2022-11-18T05:56:47.061Z,21.20
2022-11-18T06:08:47.498Z,21.60
2022-11-18T06:20:48.007Z,22.60
2022-11-18T06:32:48.467Z,21.70
2022-11-18T06:44:48.914Z,22.30
2022-11-18T06:56:49.306Z,18.70
2022-11-18T07:08:49.785Z,20.10
2022-11-18T07:20:50.253Z,17.50
2022-11-18T07:32:50.663Z,17.10
2022-11-18T07:44:51.157Z,16.80
2022-11-18T07:56:51.600Z,17.40
2022-11-18T08:08:52.096Z,26.50
2022-11-18T08:20:52.486Z,17.20
2022-11-18T08:32:52.949Z,13.20
2022-11-18T08:44:53.381Z,12.80
2022-11-18T08:56:53.866Z,13.10
2022-11-18T09:08:54.293Z,12.90
2022-11-18T09:20:54.777Z,12.40
2022-11-18T09:32:55.230Z,12.80
2022-11-18T09:44:55.635Z,12.90
2022-11-18T09:56:56.213Z,12.10
2022-11-18T10:08:56.561Z,11.50
2022-11-18T10:20:57.044Z,12.00
2022-11-18T10:32:57.489Z,12.60
2022-11-18T10:44:57.920Z,12.00
2022-11-18T10:56:58.726Z,11.90
2022-11-18T11:08:58.831Z,11.70
2022-11-18T11:20:59.281Z,10.50
2022-11-18T11:32:59.749Z,10.80
2022-11-18T11:45:00.172Z,10.20
2022-11-18T11:57:00.614Z,15.00
2022-11-18T12:09:01.114Z,9.80
2022-11-18T12:21:01.501Z,10.30
2022-11-18T12:33:01.972Z,9.80
2022-11-18T12:45:02.458Z,9.10
2022-11-18T12:57:02.908Z,8.50
2022-11-18T13:09:03.312Z,8.50
2022-11-18T13:21:03.784Z,8.30
2022-11-18T13:33:04.266Z,7.60
2022-11-18T13:45:04.729Z,12.70
2022-11-18T13:57:05.127Z,8.10
2022-11-18T14:09:05.603Z,8.70
2022-11-18T14:21:06.054Z,7.70
2022-11-18T14:33:06.508Z,7.90
2022-11-18T14:45:06.978Z,39.20
2022-11-18T14:57:07.406Z,8.90
2022-11-18T15:09:07.846Z,6.70
2022-11-18T15:21:08.339Z,7.80
2022-11-18T15:33:08.780Z,14.80
2022-11-18T15:45:09.240Z,8.00
2022-11-18T15:57:09.663Z,10.20
2022-11-18T16:09:10.125Z,7.60
2022-11-18T16:21:10.530Z,7.80
2022-11-18T16:33:11.021Z,11.80
2022-11-18T16:45:11.481Z,12.40
2022-11-18T16:57:11.968Z,9.00
2022-11-18T17:09:12.521Z,26.80
2022-11-18T17:21:12.848Z,21.10
2022-11-18T17:33:13.286Z,27.40
2022-11-18T17:45:13.808Z,20.30
2022-11-18T17:57:14.178Z,23.60
2022-11-18T18:09:14.651Z,21.20
2022-11-18T18:21:15.098Z,19.20
2022-11-18T18:33:15.576Z,16.20
2022-11-18T18:45:15.971Z,15.60
2022-11-18T18:57:16.430Z,11.70
2022-11-18T19:09:16.909Z,10.90
2022-11-18T19:21:17.403Z,9.70
2022-11-18T19:33:17.818Z,10.00
2022-11-18T19:45:18.247Z,10.30
2022-11-18T19:57:18.718Z,10.10
2022-11-18T20:09:19.631Z,10.40
2022-11-18T20:21:19.628Z,13.00
2022-11-18T20:33:20.082Z,16.60
2022-11-18T20:45:20.545Z,12.90
2022-11-18T20:57:21.018Z,13.60
2022-11-18T21:09:21.708Z,13.50
2022-11-18T21:21:21.889Z,13.60
2022-11-18T21:33:22.329Z,15.90
2022-11-18T21:45:22.806Z,14.60
2022-11-18T21:57:23.256Z,15.20
2022-11-18T22:09:23.698Z,16.90
2022-11-18T22:21:24.174Z,15.30
2022-11-18T22:33:24.638Z,13.40
2022-11-18T22:45:25.055Z,13.60
2022-11-18T22:57:25.514Z,13.90
2022-11-18T23:09:25.962Z,14.20
2022-11-18T23:21:26.462Z,15.80
2022-11-18T23:33:26.875Z,14.90
2022-11-18T23:45:27.334Z,16.00
2022-11-18T23:57:27.770Z,16.60
